createdAt,value
2018-03-17T00:00:38.102Z,6.10
2018-03-17T00:03:05.552Z,6.00
2018-03-17T00:05:33.785Z,6.10
2018-03-17T00:08:01.238Z,6.00
2018-03-17T00:10:28.690Z,6.00
2018-03-17T00:12:56.157Z,5.80
2018-03-17T00:15:23.613Z,5.80
2018-03-17T00:17:51.061Z,5.70
2018-03-17T00:20:18.514Z,5.70
2018-03-17T00:22:45.961Z,5.70
2018-03-17T00:25:14.201Z,5.90
2018-03-17T00:27:41.658Z,5.90
2018-03-17T00:30:09.109Z,5.90
2018-03-17T00:32:36.576Z,5.80
2018-03-17T00:35:04.034Z,5.80
2018-03-17T00:37:31.505Z,5.80
2018-03-17T00:39:58.954Z,5.80
2018-03-17T00:42:26.414Z,5.80
2018-03-17T00:44:53.934Z,5.90
2018-03-17T00:47:21.337Z,6.00
2018-03-17T00:49:48.786Z,6.10
2018-03-17T00:52:16.317Z,6.30
2018-03-17T00:54:43.699Z,6.30
2018-03-17T00:57:11.160Z,6.30
2018-03-17T00:59:38.601Z,6.30
2018-03-17T01:02:06.077Z,6.30
2018-03-17T01:04:34.294Z,6.30
2018-03-17T01:07:01.769Z,6.30
2018-03-17T01:09:29.222Z,6.30
2018-03-17T01:11:56.686Z,6.30
2018-03-17T01:14:24.142Z,6.30
2018-03-17T01:16:51.602Z,6.30
2018-03-17T01:19:19.827Z,6.30
2018-03-17T01:21:47.290Z,6.30
2018-03-17T01:24:14.738Z,6.40
2018-03-17T01:26:42.962Z,6.40
2018-03-17T01:29:10.418Z,6.40
2018-03-17T01:31:37.880Z,6.30
2018-03-17T01:34:05.334Z,6.30
2018-03-17T01:36:32.793Z,6.30
2018-03-17T01:39:00.249Z,6.30
2018-03-17T01:41:27.705Z,6.30
2018-03-17T01:43:55.158Z,6.30
2018-03-17T01:46:22.688Z,6.30
2018-03-17T01:48:50.129Z,6.30
2018-03-17T01:51:17.589Z,6.30
2018-03-17T01:53:45.040Z,6.30
2018-03-17T01:56:12.505Z,6.20
2018-03-17T01:58:39.945Z,6.20
2018-03-17T02:01:07.413Z,6.20
2018-03-17T02:03:34.868Z,6.20
2018-03-17T02:06:02.326Z,6.20
2018-03-17T02:08:29.782Z,6.20
2018-03-17T02:10:57.241Z,6.20
2018-03-17T02:13:24.714Z,6.10
2018-03-17T02:15:52.160Z,6.10
2018-03-17T02:18:19.624Z,6.20
2018-03-17T02:20:47.083Z,6.20
2018-03-17T02:23:14.538Z,6.20
2018-03-17T02:25:41.989Z,6.30
2018-03-17T02:28:09.450Z,6.30
2018-03-17T02:30:36.899Z,6.30
2018-03-17T02:33:04.359Z,6.30
2018-03-17T02:35:31.815Z,6.30
2018-03-17T02:37:59.265Z,6.30
2018-03-17T02:40:26.730Z,6.30
2018-03-17T02:42:54.185Z,6.40
2018-03-17T02:45:21.643Z,6.50
2018-03-17T02:47:49.105Z,6.60
2018-03-17T02:50:16.561Z,6.60
2018-03-17T02:52:44.021Z,6.70
2018-03-17T02:55:11.479Z,6.70
2018-03-17T02:57:38.946Z,6.70
2018-03-17T03:00:06.397Z,6.70
2018-03-17T03:02:33.861Z,6.80
2018-03-17T03:05:01.317Z,6.80
2018-03-17T03:07:28.778Z,6.80
2018-03-17T03:09:56.230Z,6.80
2018-03-17T03:12:23.699Z,6.80
2018-03-17T03:14:51.149Z,6.80
2018-03-17T03:17:18.613Z,6.80
2018-03-17T03:19:46.070Z,6.70
2018-03-17T03:22:13.528Z,6.70
2018-03-17T03:24:40.987Z,6.70
2018-03-17T03:27:08.450Z,6.70
2018-03-17T03:29:35.905Z,6.60
2018-03-17T03:32:03.364Z,6.60
2018-03-17T03:34:30.817Z,6.50
2018-03-17T03:36:58.282Z,6.50
2018-03-17T03:39:25.741Z,6.40
2018-03-17T03:41:53.194Z,6.50
2018-03-17T03:44:20.673Z,6.50
2018-03-17T03:46:48.894Z,6.50
2018-03-17T03:49:16.415Z,6.40
2018-03-17T03:51:43.818Z,6.30
2018-03-17T03:54:11.281Z,6.30
2018-03-17T03:56:38.734Z,6.20
2018-03-17T03:59:06.197Z,6.10
2018-03-17T04:01:33.649Z,6.00
2018-03-17T04:04:01.111Z,6.00
2018-03-17T04:06:28.565Z,6.00
2018-03-17T04:08:56.029Z,6.00
2018-03-17T04:11:23.486Z,6.00
2018-03-17T04:13:50.954Z,5.90
2018-03-17T04:16:19.189Z,5.90
2018-03-17T04:18:46.649Z,5.90
2018-03-17T04:21:14.883Z,5.80
2018-03-17T04:23:42.342Z,5.80
2018-03-17T04:26:09.796Z,5.80
2018-03-17T04:28:37.270Z,5.80
2018-03-17T04:31:04.730Z,5.80
2018-03-17T04:33:32.193Z,5.80
2018-03-17T04:35:59.650Z,5.70
2018-03-17T04:38:27.122Z,5.70
2018-03-17T04:40:55.345Z,5.70
2018-03-17T04:43:23.577Z,5.70
2018-03-17T04:45:51.029Z,5.60
2018-03-17T04:48:18.493Z,5.60
2018-03-17T04:50:45.946Z,5.60
2018-03-17T04:53:13.415Z,5.50
2018-03-17T04:55:40.857Z,5.40
2018-03-17T04:58:08.331Z,5.40
2018-03-17T05:00:35.854Z,5.30
2018-03-17T05:03:03.326Z,5.30
2018-03-17T05:05:30.781Z,5.30
2018-03-17T05:07:58.245Z,5.20
2018-03-17T05:10:25.698Z,5.20
2018-03-17T05:12:53.163Z,5.20
2018-03-17T05:15:20.614Z,5.10
2018-03-17T05:17:48.097Z,5.00
2018-03-17T05:20:15.545Z,4.90
2018-03-17T05:22:43.005Z,4.90
2018-03-17T05:25:10.461Z,4.90
2018-03-17T05:27:37.918Z,4.90
2018-03-17T05:30:05.377Z,4.90
2018-03-17T05:32:32.830Z,4.90
2018-03-17T05:35:00.302Z,4.90
2018-03-17T05:37:28.526Z,4.90
2018-03-17T05:39:55.990Z,4.80
2018-03-17T05:42:23.447Z,4.90
2018-03-17T05:44:50.919Z,4.90
2018-03-17T05:47:18.378Z,4.90
2018-03-17T05:49:45.841Z,4.90
2018-03-17T05:52:13.308Z,4.90
2018-03-17T05:54:40.766Z,4.80
2018-03-17T05:57:08.217Z,4.80
2018-03-17T05:59:35.677Z,4.80
2018-03-17T06:02:03.133Z,4.70
2018-03-17T06:04:30.601Z,4.70
2018-03-17T06:06:58.816Z,4.60
2018-03-17T06:09:26.290Z,4.60
2018-03-17T06:11:53.748Z,4.60
2018-03-17T06:14:21.206Z,4.60
2018-03-17T06:16:48.665Z,4.60
2018-03-17T06:19:16.136Z,4.60
2018-03-17T06:21:43.586Z,4.60
2018-03-17T06:24:11.057Z,4.60
2018-03-17T06:26:38.510Z,4.60
2018-03-17T06:29:05.981Z,4.70
2018-03-17T06:31:34.197Z,4.70
2018-03-17T06:34:01.668Z,4.70
2018-03-17T06:36:29.169Z,4.70
2018-03-17T06:38:57.350Z,4.60
2018-03-17T06:41:25.572Z,4.50
2018-03-17T06:43:53.047Z,4.50
2018-03-17T06:46:20.493Z,4.50
2018-03-17T06:48:47.974Z,4.50
2018-03-17T06:51:15.426Z,4.50
2018-03-17T06:53:42.918Z,4.50
2018-03-17T06:56:10.374Z,4.50
2018-03-17T06:58:37.828Z,4.50
2018-03-17T07:01:05.291Z,4.50
2018-03-17T07:03:32.737Z,4.40
2018-03-17T07:06:00.203Z,4.40
2018-03-17T07:08:27.654Z,4.40
2018-03-17T07:10:55.118Z,4.30
2018-03-17T07:13:22.572Z,4.30
2018-03-17T07:15:50.046Z,4.20
2018-03-17T07:18:17.497Z,4.20
2018-03-17T07:20:45.001Z,4.20
2018-03-17T07:23:12.454Z,4.20
2018-03-17T07:25:39.919Z,4.20
2018-03-17T07:28:07.369Z,4.20
2018-03-17T07:30:34.922Z,4.20
2018-03-17T07:33:02.385Z,4.20
2018-03-17T07:35:29.860Z,4.20
2018-03-17T07:37:58.097Z,4.10
2018-03-17T07:40:25.630Z,4.10
2018-03-17T07:42:53.088Z,4.10
2018-03-17T07:45:20.597Z,4.20
2018-03-17T07:47:48.006Z,4.20
2018-03-17T07:50:15.481Z,4.10
2018-03-17T07:52:42.942Z,4.20
2018-03-17T07:55:10.405Z,4.10
2018-03-17T07:57:37.870Z,4.20
2018-03-17T08:00:05.335Z,4.20
2018-03-17T08:02:32.791Z,4.20
2018-03-17T08:05:00.254Z,4.20
2018-03-17T08:07:28.479Z,4.40
2018-03-17T08:09:55.938Z,4.40
2018-03-17T08:12:23.393Z,4.50
2018-03-17T08:14:50.858Z,4.60
2018-03-17T08:17:18.310Z,4.60
2018-03-17T08:19:45.774Z,4.70
2018-03-17T08:22:13.232Z,4.70
2018-03-17T08:24:40.705Z,4.80
2018-03-17T08:27:08.170Z,4.80
2018-03-17T08:29:35.641Z,4.90
2018-03-17T08:32:03.870Z,4.90
2018-03-17T08:34:31.335Z,4.90
2018-03-17T08:36:58.802Z,4.90
2018-03-17T08:39:26.306Z,4.90
2018-03-17T08:41:53.866Z,4.90
2018-03-17T08:44:22.093Z,4.90
2018-03-17T08:46:49.554Z,4.90
2018-03-17T08:49:17.089Z,4.90
2018-03-17T08:51:44.484Z,4.80
2018-03-17T08:54:11.931Z,4.80
2018-03-17T08:56:39.401Z,4.80
2018-03-17T08:59:06.879Z,4.80
2018-03-17T09:01:34.381Z,4.80
2018-03-17T09:04:01.850Z,4.80
2018-03-17T09:06:29.314Z,4.70
2018-03-17T09:08:56.770Z,4.70
2018-03-17T09:11:24.251Z,4.70
2018-03-17T09:13:52.470Z,4.60
2018-03-17T09:16:19.921Z,4.50
2018-03-17T09:18:47.382Z,4.50
2018-03-17T09:21:14.852Z,4.60
2018-03-17T09:23:42.305Z,4.50
2018-03-17T09:26:09.764Z,4.50
2018-03-17T09:28:37.226Z,4.60
2018-03-17T09:31:04.690Z,4.60
2018-03-17T09:33:32.138Z,4.60
2018-03-17T09:35:59.603Z,4.70
2018-03-17T09:38:27.075Z,4.70
2018-03-17T09:40:54.531Z,4.80
2018-03-17T09:43:21.994Z,4.80
2018-03-17T09:45:49.441Z,4.80
2018-03-17T09:48:16.902Z,4.90
2018-03-17T09:50:44.354Z,5.00
2018-03-17T09:53:11.816Z,5.00
2018-03-17T09:55:39.276Z,5.00
2018-03-17T09:58:06.735Z,5.00
2018-03-17T10:00:34.966Z,5.00
2018-03-17T10:03:02.432Z,4.90
2018-03-17T10:05:29.902Z,5.00
2018-03-17T10:07:57.357Z,5.00
2018-03-17T10:10:24.806Z,5.00
2018-03-17T10:12:52.311Z,5.00
2018-03-17T10:15:19.725Z,4.90
2018-03-17T10:17:47.178Z,5.00
2018-03-17T10:20:14.639Z,5.00
2018-03-17T10:22:42.108Z,5.00
2018-03-17T10:25:09.574Z,5.10
2018-03-17T10:27:37.789Z,5.10
2018-03-17T10:30:05.253Z,5.10
2018-03-17T10:32:32.729Z,5.10
2018-03-17T10:35:00.190Z,5.00
2018-03-17T10:37:27.645Z,5.00
2018-03-17T10:39:55.110Z,5.10
2018-03-17T10:42:22.557Z,5.10
2018-03-17T10:44:50.790Z,5.00
2018-03-17T10:47:18.250Z,5.00
2018-03-17T10:49:45.719Z,5.00
2018-03-17T10:52:13.179Z,5.00
2018-03-17T10:54:40.646Z,5.10
2018-03-17T10:57:08.106Z,5.10
2018-03-17T10:59:35.562Z,5.20
2018-03-17T11:02:04.788Z,5.20
2018-03-17T11:04:32.256Z,5.20
2018-03-17T11:06:59.723Z,5.20
2018-03-17T11:09:28.032Z,5.30
2018-03-17T11:11:57.059Z,5.40
2018-03-17T11:14:24.514Z,5.30
2018-03-17T11:16:52.029Z,5.30
2018-03-17T11:19:19.421Z,5.30
2018-03-17T11:21:46.883Z,5.20
2018-03-17T11:24:14.342Z,5.20
2018-03-17T11:26:41.799Z,5.20
2018-03-17T11:29:09.264Z,5.20
2018-03-17T11:31:36.725Z,5.20
2018-03-17T11:34:04.179Z,5.20
2018-03-17T11:36:31.637Z,5.20
2018-03-17T11:38:59.094Z,5.10
2018-03-17T11:41:26.571Z,5.10
2018-03-17T11:43:54.785Z,5.00
2018-03-17T11:46:22.249Z,5.00
2018-03-17T11:48:49.712Z,5.00
2018-03-17T11:51:17.161Z,5.10
2018-03-17T11:53:45.387Z,5.00
2018-03-17T11:56:13.611Z,5.00
2018-03-17T11:58:41.074Z,5.00
2018-03-17T12:01:08.535Z,5.10
2018-03-17T12:03:35.986Z,5.10
2018-03-17T12:06:03.567Z,5.00
2018-03-17T12:08:31.022Z,5.00
2018-03-17T12:10:58.498Z,5.10
2018-03-17T12:13:26.733Z,5.10
2018-03-17T12:15:54.194Z,5.10
2018-03-17T12:18:21.650Z,5.10
2018-03-17T12:20:49.106Z,5.20
2018-03-17T12:23:17.334Z,5.10
2018-03-17T12:25:44.794Z,5.10
2018-03-17T12:28:12.254Z,5.20
2018-03-17T12:30:39.718Z,5.20
2018-03-17T12:33:07.181Z,5.10
2018-03-17T12:35:34.647Z,5.10
2018-03-17T12:38:02.110Z,5.10
2018-03-17T12:40:29.599Z,5.10
2018-03-17T12:42:57.096Z,5.10
2018-03-17T12:45:24.553Z,5.10
2018-03-17T12:47:52.013Z,5.00
2018-03-17T12:50:19.481Z,5.00
2018-03-17T12:52:47.360Z,5.00
2018-03-17T12:55:14.854Z,5.00
2018-03-17T12:57:43.094Z,4.90
2018-03-17T13:00:10.555Z,4.90
2018-03-17T13:02:38.826Z,4.90
2018-03-17T13:05:06.281Z,4.90
2018-03-17T13:07:33.754Z,4.90
2018-03-17T13:10:01.219Z,4.90
2018-03-17T13:12:28.672Z,4.90
2018-03-17T13:14:56.132Z,5.00
2018-03-17T13:17:23.582Z,5.00
2018-03-17T13:19:51.044Z,4.90
2018-03-17T13:22:18.502Z,4.90
2018-03-17T13:24:45.957Z,4.90
2018-03-17T13:27:25.144Z,4.90
2018-03-17T13:29:52.602Z,4.90
2018-03-17T13:32:32.022Z,4.80
2018-03-17T13:34:59.489Z,4.80
2018-03-17T13:37:37.818Z,4.80
2018-03-17T13:40:17.182Z,4.70
2018-03-17T13:42:45.328Z,4.70
2018-03-17T13:45:12.789Z,4.70
2018-03-17T13:47:40.242Z,4.80
2018-03-17T13:50:07.706Z,4.80
2018-03-17T13:52:35.157Z,4.90
2018-03-17T13:55:02.622Z,4.90
2018-03-17T13:57:30.078Z,4.80
2018-03-17T13:59:58.305Z,4.90
2018-03-17T14:02:25.810Z,4.80
2018-03-17T14:04:53.272Z,4.80
2018-03-17T14:07:20.738Z,4.80
2018-03-17T14:09:48.193Z,4.80
2018-03-17T14:12:15.639Z,4.80
2018-03-17T14:14:43.101Z,4.80
2018-03-17T14:17:10.556Z,4.80
2018-03-17T14:19:38.024Z,4.70
2018-03-17T14:22:05.488Z,4.80
2018-03-17T14:24:32.946Z,4.80
2018-03-17T14:27:00.408Z,4.80
2018-03-17T14:29:27.878Z,4.80
2018-03-17T14:31:56.110Z,4.70
2018-03-17T14:34:23.583Z,4.70
2018-03-17T14:36:51.038Z,4.70
2018-03-17T14:39:18.489Z,4.60
2018-03-17T14:41:45.970Z,4.70
2018-03-17T14:44:13.440Z,4.70
2018-03-17T14:46:41.663Z,4.70
2018-03-17T14:49:09.135Z,4.70
2018-03-17T14:51:36.594Z,4.70
2018-03-17T14:54:04.050Z,4.70
2018-03-17T14:56:31.517Z,4.60
2018-03-17T14:58:58.977Z,4.60
2018-03-17T15:01:26.438Z,4.50
2018-03-17T15:03:53.935Z,4.40
2018-03-17T15:06:21.426Z,4.40
2018-03-17T15:08:48.877Z,4.30
2018-03-17T15:11:16.338Z,4.30
2018-03-17T15:13:44.561Z,4.30
2018-03-17T15:16:12.023Z,4.30
2018-03-17T15:18:39.477Z,4.40
2018-03-17T15:21:06.934Z,4.40
2018-03-17T15:23:34.398Z,4.40
2018-03-17T15:26:01.859Z,4.40
2018-03-17T15:28:29.351Z,4.30
2018-03-17T15:30:56.813Z,4.30
2018-03-17T15:33:24.267Z,4.30
2018-03-17T15:35:52.134Z,4.30
2018-03-17T15:38:19.580Z,4.30
2018-03-17T15:40:47.042Z,4.30
2018-03-17T15:43:14.541Z,4.30
2018-03-17T15:45:42.757Z,4.20
2018-03-17T15:48:10.286Z,4.20
2018-03-17T15:50:37.691Z,4.10
2018-03-17T15:53:05.151Z,4.10
2018-03-17T15:55:32.609Z,4.10
2018-03-17T15:58:00.078Z,4.10
2018-03-17T16:00:27.546Z,4.10
2018-03-17T16:02:55.002Z,4.10
2018-03-17T16:05:23.226Z,4.10
2018-03-17T16:07:50.694Z,4.10
2018-03-17T16:10:18.234Z,4.10
2018-03-17T16:12:45.691Z,4.10
2018-03-17T16:15:13.153Z,4.10
2018-03-17T16:17:40.615Z,4.10
2018-03-17T16:20:08.071Z,4.00
2018-03-17T16:22:35.524Z,4.10
2018-03-17T16:25:03.086Z,4.00
2018-03-17T16:27:30.542Z,4.10
2018-03-17T16:29:58.088Z,4.00
2018-03-17T16:32:25.537Z,4.00
2018-03-17T16:34:52.989Z,4.00
2018-03-17T16:37:20.450Z,4.00
2018-03-17T16:39:48.018Z,3.90
2018-03-17T16:42:15.481Z,3.90
2018-03-17T16:44:42.946Z,3.90
2018-03-17T16:47:10.413Z,3.90
2018-03-17T16:49:37.869Z,3.90
2018-03-17T16:52:05.317Z,3.90
2018-03-17T16:54:32.783Z,3.90
2018-03-17T16:57:00.239Z,4.00
2018-03-17T16:59:27.710Z,4.00
2018-03-17T17:01:55.170Z,3.90
2018-03-17T17:04:22.635Z,3.90
2018-03-17T17:06:50.087Z,3.90
2018-03-17T17:09:17.573Z,3.80
2018-03-17T17:11:44.997Z,3.80
2018-03-17T17:14:12.450Z,3.70
2018-03-17T17:16:39.965Z,3.70
2018-03-17T17:19:07.422Z,3.70
2018-03-17T17:21:34.873Z,3.70
2018-03-17T17:24:02.326Z,3.70
2018-03-17T17:26:29.788Z,3.70
2018-03-17T17:28:57.234Z,3.70
2018-03-17T17:31:24.689Z,3.60
2018-03-17T17:33:52.166Z,3.60
2018-03-17T17:36:19.611Z,3.60
2018-03-17T17:38:47.078Z,3.60
2018-03-17T17:41:14.536Z,3.60
2018-03-17T17:43:41.990Z,3.60
2018-03-17T17:46:09.451Z,3.50
2018-03-17T17:48:36.910Z,3.50
2018-03-17T17:51:04.361Z,3.50
2018-03-17T17:53:31.821Z,3.50
2018-03-17T17:55:59.279Z,3.50
2018-03-17T17:58:26.757Z,3.50
2018-03-17T18:00:54.220Z,3.50
2018-03-17T18:03:21.674Z,3.40
2018-03-17T18:05:49.129Z,3.40
2018-03-17T18:08:16.578Z,3.40
2018-03-17T18:10:44.033Z,3.30
2018-03-17T18:13:11.481Z,3.30
2018-03-17T18:15:38.946Z,3.30
2018-03-17T18:18:06.402Z,3.30
2018-03-17T18:20:33.858Z,3.30
2018-03-17T18:23:02.081Z,3.20
2018-03-17T18:25:30.321Z,3.20
2018-03-17T18:27:57.770Z,3.20
2018-03-17T18:30:25.276Z,3.20
2018-03-17T18:32:52.739Z,3.20
2018-03-17T18:35:20.202Z,3.20
2018-03-17T18:37:48.589Z,3.20
2018-03-17T18:40:16.059Z,3.20
2018-03-17T18:42:43.523Z,3.20
2018-03-17T18:45:10.973Z,3.20
2018-03-17T18:47:38.442Z,3.20
2018-03-17T18:50:05.898Z,3.20
2018-03-17T18:52:34.131Z,3.20
2018-03-17T18:55:01.598Z,3.20
2018-03-17T18:57:29.057Z,3.20
2018-03-17T18:59:56.547Z,3.20
2018-03-17T19:02:24.014Z,3.10
2018-03-17T19:04:51.478Z,3.20
2018-03-17T19:07:18.933Z,3.20
2018-03-17T19:09:46.385Z,3.10
2018-03-17T19:12:13.853Z,3.10
2018-03-17T19:14:41.314Z,3.10
2018-03-17T19:17:08.782Z,3.10
2018-03-17T19:19:37.009Z,3.00
2018-03-17T19:22:04.466Z,3.00
2018-03-17T19:24:31.921Z,3.00
2018-03-17T19:26:59.385Z,3.00
2018-03-17T19:29:26.837Z,3.00
2018-03-17T19:31:54.305Z,3.00
2018-03-17T19:34:21.788Z,3.00
2018-03-17T19:36:49.258Z,3.00
2018-03-17T19:39:17.474Z,3.00
2018-03-17T19:41:44.933Z,3.00
2018-03-17T19:44:12.465Z,3.00
2018-03-17T19:46:39.842Z,3.00
2018-03-17T19:49:07.297Z,3.00
2018-03-17T19:51:34.762Z,2.90
2018-03-17T19:54:02.242Z,2.90
2018-03-17T19:56:29.685Z,2.90
2018-03-17T19:58:57.142Z,2.80
2018-03-17T20:01:24.600Z,2.80
2018-03-17T20:03:52.063Z,2.80
2018-03-17T20:06:19.513Z,2.70
2018-03-17T20:08:46.977Z,2.70
2018-03-17T20:11:15.159Z,2.70
2018-03-17T20:13:42.618Z,2.70
2018-03-17T20:16:10.163Z,2.70
2018-03-17T20:18:37.617Z,2.70
2018-03-17T20:21:05.074Z,2.70
2018-03-17T20:23:32.538Z,2.80
2018-03-17T20:25:59.981Z,2.80
2018-03-17T20:28:27.441Z,2.80
2018-03-17T20:30:54.902Z,2.80
2018-03-17T20:33:22.369Z,2.70
2018-03-17T20:35:49.817Z,2.70
2018-03-17T20:38:17.281Z,2.60
2018-03-17T20:40:44.738Z,2.60
2018-03-17T20:43:12.202Z,2.60
2018-03-17T20:45:39.658Z,2.60
2018-03-17T20:48:07.118Z,2.60
2018-03-17T20:50:35.343Z,2.60
2018-03-17T20:53:02.806Z,2.60
2018-03-17T20:55:30.257Z,2.60
2018-03-17T20:57:57.753Z,2.60
2018-03-17T21:00:25.961Z,2.60
2018-03-17T21:02:53.426Z,2.60
2018-03-17T21:05:20.882Z,2.60
2018-03-17T21:07:48.350Z,2.50
2018-03-17T21:10:15.802Z,2.50
2018-03-17T21:12:43.266Z,2.40
2018-03-17T21:15:10.717Z,2.40
2018-03-17T21:17:38.190Z,2.30
2018-03-17T21:20:05.648Z,2.30
2018-03-17T21:22:33.118Z,2.20
2018-03-17T21:25:00.570Z,2.20
2018-03-17T21:27:28.033Z,2.20
2018-03-17T21:29:55.500Z,2.10
2018-03-17T21:32:28.758Z,2.20
2018-03-17T21:34:56.216Z,2.20
2018-03-17T21:37:23.669Z,2.20
2018-03-17T21:39:51.138Z,2.10
2018-03-17T21:42:18.590Z,2.10
2018-03-17T21:44:46.850Z,2.00
2018-03-17T21:47:14.305Z,2.00
2018-03-17T21:49:41.779Z,2.00
2018-03-17T21:52:09.254Z,1.90
2018-03-17T21:54:36.716Z,1.90
2018-03-17T21:57:04.165Z,1.80
2018-03-17T21:59:31.629Z,1.80
2018-03-17T22:01:59.833Z,1.70
2018-03-17T22:04:28.073Z,1.70
2018-03-17T22:06:55.545Z,1.60
2018-03-17T22:09:23.010Z,1.60
2018-03-17T22:11:51.262Z,1.60
2018-03-17T22:14:18.726Z,1.60
2018-03-17T22:16:46.181Z,1.60
2018-03-17T22:19:13.650Z,1.60
2018-03-17T22:21:41.113Z,1.60
2018-03-17T22:24:08.597Z,1.60
2018-03-17T22:26:36.063Z,1.60
2018-03-17T22:29:03.521Z,1.50
2018-03-17T22:31:30.986Z,1.50
2018-03-17T22:33:58.445Z,1.40
2018-03-17T22:36:25.906Z,1.40
2018-03-17T22:38:53.451Z,1.40
2018-03-17T22:41:20.897Z,1.40
2018-03-17T22:43:48.377Z,1.40
2018-03-17T22:46:15.832Z,1.40
2018-03-17T22:48:43.297Z,1.30
2018-03-17T22:51:10.761Z,1.30
2018-03-17T22:53:38.218Z,1.30
2018-03-17T22:56:05.668Z,1.20
2018-03-17T22:58:33.133Z,1.20
2018-03-17T23:01:00.593Z,1.10
2018-03-17T23:03:28.058Z,1.00
2018-03-17T23:05:55.514Z,1.00
2018-03-17T23:08:23.025Z,0.90
2018-03-17T23:10:50.491Z,1.00
2018-03-17T23:13:17.947Z,1.00
2018-03-17T23:15:45.405Z,1.00
2018-03-17T23:18:12.859Z,1.00
2018-03-17T23:20:40.324Z,1.00
2018-03-17T23:23:07.791Z,1.10
2018-03-17T23:25:35.249Z,1.10
2018-03-17T23:28:02.710Z,1.00
2018-03-17T23:30:30.165Z,1.00
2018-03-17T23:32:57.618Z,0.90
2018-03-17T23:35:25.857Z,0.90
2018-03-17T23:37:53.301Z,0.80
2018-03-17T23:40:20.773Z,0.90
2018-03-17T23:42:48.986Z,0.90
2018-03-17T23:45:16.461Z,0.90
2018-03-17T23:47:43.922Z,0.90
2018-03-17T23:50:11.396Z,0.90
2018-03-17T23:52:39.622Z,0.90
2018-03-17T23:55:07.084Z,0.90
2018-03-17T23:57:34.546Z,0.90
